createdAt,value
2019-04-14T00:00:38.321Z,3.70
2019-04-14T00:03:08.851Z,3.62
2019-04-14T00:05:38.635Z,3.50
2019-04-14T00:08:08.870Z,3.42
2019-04-14T00:10:37.877Z,3.35
2019-04-14T00:13:08.855Z,3.67
2019-04-14T00:15:41.958Z,3.22
2019-04-14T00:18:07.654Z,3.90
2019-04-14T00:20:36.423Z,4.30
2019-04-14T00:23:06.499Z,3.80
2019-04-14T00:25:35.418Z,3.60
2019-04-14T00:28:05.240Z,3.77
2019-04-14T00:30:34.074Z,4.12
2019-04-14T00:33:08.463Z,3.75
2019-04-14T00:35:38.984Z,4.25
2019-04-14T00:38:15.302Z,4.35
2019-04-14T00:40:49.694Z,4.45
2019-04-14T00:43:20.119Z,4.15
2019-04-14T00:45:53.529Z,4.53
2019-04-14T00:48:24.150Z,4.75
2019-04-14T00:50:53.965Z,5.35
2019-04-14T00:53:22.895Z,5.28
2019-04-14T00:55:51.666Z,5.30
2019-04-14T00:58:21.454Z,4.20
2019-04-14T01:00:51.670Z,4.00
2019-04-14T01:03:20.597Z,4.25
2019-04-14T01:05:52.502Z,3.95
2019-04-14T01:08:20.608Z,4.10
2019-04-14T01:10:49.737Z,5.47
2019-04-14T01:13:20.023Z,3.98
2019-04-14T01:15:59.644Z,4.87
2019-04-14T01:18:19.308Z,4.22
2019-04-14T01:20:49.153Z,4.55
2019-04-14T01:23:19.275Z,4.33
2019-04-14T01:25:48.274Z,3.67
2019-04-14T01:28:17.955Z,3.92
2019-04-14T01:30:47.933Z,4.40
2019-04-14T01:33:16.788Z,4.25
2019-04-14T01:35:46.627Z,4.67
2019-04-14T01:38:15.528Z,3.50
2019-04-14T01:40:44.658Z,3.80
2019-04-14T01:43:14.498Z,4.05
2019-04-14T01:45:43.448Z,3.87
2019-04-14T01:48:12.714Z,3.55
2019-04-14T01:51:00.479Z,3.90
2019-04-14T01:53:46.795Z,3.22
2019-04-14T01:56:36.287Z,4.10
2019-04-14T01:59:06.683Z,4.25
2019-04-14T02:01:41.043Z,4.15
2019-04-14T02:04:10.007Z,4.75
2019-04-14T02:06:39.798Z,5.45
2019-04-14T02:09:12.033Z,4.78
2019-04-14T02:11:42.278Z,4.60
2019-04-14T02:14:12.297Z,3.98
2019-04-14T02:16:47.343Z,3.95
2019-04-14T02:19:13.086Z,3.72
2019-04-14T02:21:43.154Z,3.85
2019-04-14T02:24:13.440Z,3.92
2019-04-14T02:26:46.081Z,3.50
2019-04-14T02:29:14.752Z,3.70
2019-04-14T02:32:09.897Z,3.20
2019-04-14T02:34:42.297Z,3.90
2019-04-14T02:37:10.714Z,3.30
2019-04-14T02:39:48.312Z,3.60
2019-04-14T02:44:44.282Z,4.22
2019-04-14T02:49:47.124Z,3.50
2019-04-14T02:52:12.049Z,3.75
2019-04-14T02:54:51.678Z,3.80
2019-04-14T02:57:19.074Z,3.70
2019-04-14T02:59:43.227Z,4.08
2019-04-14T03:02:24.666Z,3.60
2019-04-14T03:04:44.835Z,3.42
2019-04-14T03:09:48.660Z,3.52
2019-04-14T03:12:20.653Z,3.40
2019-04-14T03:14:49.853Z,3.75
2019-04-14T03:25:08.098Z,4.22
2019-04-14T03:27:55.154Z,4.05
2019-04-14T03:33:17.459Z,4.03
2019-04-14T03:38:10.326Z,3.42
2019-04-14T03:40:35.927Z,3.65
2019-04-14T03:45:54.750Z,4.33
2019-04-14T03:48:34.606Z,3.45
2019-04-14T03:53:23.390Z,4.25
2019-04-14T03:55:21.547Z,3.55
2019-04-14T03:57:41.189Z,3.85
2019-04-14T04:00:11.738Z,3.80
2019-04-14T04:02:40.734Z,3.65
2019-04-14T04:05:10.621Z,3.67
2019-04-14T04:07:39.458Z,3.62
2019-04-14T04:10:09.923Z,3.80
2019-04-14T04:12:40.339Z,3.83
2019-04-14T04:15:10.404Z,3.90
2019-04-14T04:18:00.206Z,3.95
2019-04-14T04:20:47.731Z,3.75
2019-04-14T04:23:18.394Z,4.85
2019-04-14T04:25:48.831Z,5.85
2019-04-14T04:28:36.392Z,6.53
2019-04-14T04:31:07.017Z,5.95
2019-04-14T04:33:52.798Z,5.17
2019-04-14T04:36:23.224Z,5.20
2019-04-14T04:39:02.556Z,4.85
2019-04-14T04:41:31.787Z,4.25
2019-04-14T04:44:00.776Z,4.20
2019-04-14T04:46:30.853Z,4.47
2019-04-14T04:49:08.219Z,3.72
2019-04-14T04:51:31.075Z,4.10
2019-04-14T04:54:00.060Z,3.85
2019-04-14T04:56:29.754Z,3.72
2019-04-14T04:58:58.962Z,4.12
2019-04-14T05:01:27.881Z,4.50
2019-04-14T05:03:57.871Z,5.15
2019-04-14T05:07:01.431Z,6.72
2019-04-14T05:09:40.581Z,8.03
2019-04-14T05:12:28.305Z,6.40
2019-04-14T05:15:02.124Z,4.12
2019-04-14T05:17:34.227Z,3.50
2019-04-14T05:20:07.291Z,2.65
2019-04-14T05:22:37.466Z,3.77
2019-04-14T05:25:07.838Z,3.80
2019-04-14T05:27:36.843Z,4.45
2019-04-14T05:30:07.247Z,4.28
2019-04-14T05:32:36.912Z,3.55
2019-04-14T05:35:09.652Z,4.83
2019-04-14T05:37:37.853Z,10.55
2019-04-14T05:40:08.130Z,3.45
2019-04-14T05:42:38.373Z,3.40
2019-04-14T05:45:08.751Z,3.40
2019-04-14T05:47:37.466Z,2.87
2019-04-14T05:50:07.747Z,2.85
2019-04-14T05:52:38.323Z,3.30
2019-04-14T05:55:08.811Z,3.87
2019-04-14T05:57:37.629Z,4.20
2019-04-14T06:00:08.829Z,3.77
2019-04-14T06:02:37.747Z,3.80
2019-04-14T06:05:08.485Z,4.20
2019-04-14T06:07:37.135Z,3.22
2019-04-14T06:10:07.485Z,3.37
2019-04-14T06:12:36.393Z,4.70
2019-04-14T06:15:06.465Z,3.75
2019-04-14T06:17:35.186Z,3.40
2019-04-14T06:20:04.376Z,4.10
2019-04-14T06:22:33.111Z,4.08
2019-04-14T06:25:01.943Z,5.22
2019-04-14T06:27:30.682Z,4.25
2019-04-14T06:30:01.043Z,3.92
2019-04-14T06:32:37.328Z,3.60
2019-04-14T06:35:10.484Z,5.03
2019-04-14T06:37:40.862Z,3.25
2019-04-14T06:40:10.859Z,5.97
2019-04-14T06:42:39.562Z,3.10
2019-04-14T06:45:08.703Z,3.55
2019-04-14T06:47:37.451Z,3.95
2019-04-14T06:50:07.228Z,3.55
2019-04-14T06:52:36.018Z,3.15
2019-04-14T06:55:05.439Z,2.87
2019-04-14T06:57:34.176Z,3.77
2019-04-14T07:00:02.962Z,2.90
2019-04-14T07:02:31.744Z,3.42
2019-04-14T07:05:00.507Z,2.62
2019-04-14T07:07:29.226Z,4.20
2019-04-14T07:09:58.054Z,3.37
2019-04-14T07:12:26.904Z,3.98
2019-04-14T07:14:55.874Z,4.08
2019-04-14T07:17:24.801Z,4.78
2019-04-14T07:20:01.974Z,3.58
2019-04-14T07:22:23.866Z,3.27
2019-04-14T07:24:52.618Z,4.35
2019-04-14T07:27:21.386Z,4.70
2019-04-14T07:29:59.125Z,4.08
2019-04-14T07:32:35.384Z,3.37
2019-04-14T07:35:17.945Z,3.22
2019-04-14T07:37:51.030Z,3.65
2019-04-14T07:40:38.024Z,4.05
2019-04-14T07:43:24.866Z,3.55
2019-04-14T07:45:55.354Z,3.20
2019-04-14T07:48:28.672Z,2.52
2019-04-14T07:51:03.641Z,2.37
2019-04-14T07:53:52.052Z,2.50
2019-04-14T07:56:22.468Z,2.65
2019-04-14T07:59:11.339Z,2.85
2019-04-14T08:01:54.118Z,3.80
2019-04-14T08:04:24.476Z,2.70
2019-04-14T08:06:54.143Z,2.87
2019-04-14T08:09:22.962Z,3.40
2019-04-14T08:11:51.683Z,2.72
2019-04-14T08:14:20.509Z,2.77
2019-04-14T08:16:49.219Z,2.60
2019-04-14T08:19:17.964Z,2.87
2019-04-14T08:21:46.698Z,2.35
2019-04-14T08:24:15.578Z,1.85
2019-04-14T08:26:44.292Z,2.35
2019-04-14T08:29:12.999Z,2.62
2019-04-14T08:31:41.738Z,2.67
2019-04-14T08:34:11.546Z,2.20
2019-04-14T08:36:41.050Z,1.75
2019-04-14T08:39:09.806Z,1.40
2019-04-14T08:41:50.599Z,1.30
2019-04-14T08:44:20.906Z,1.40
2019-04-14T08:46:54.310Z,2.47
2019-04-14T08:49:41.156Z,2.10
2019-04-14T08:52:17.794Z,2.62
2019-04-14T08:54:48.127Z,2.02
2019-04-14T08:57:30.594Z,1.92
2019-04-14T09:00:07.156Z,1.98
2019-04-14T09:02:48.463Z,1.60
2019-04-14T09:05:40.500Z,1.35
2019-04-14T09:08:13.689Z,1.92
2019-04-14T09:10:44.017Z,2.42
2019-04-14T09:13:12.743Z,2.27
2019-04-14T09:15:41.459Z,1.62
2019-04-14T09:18:12.741Z,2.08
2019-04-14T09:20:51.639Z,1.50
2019-04-14T09:23:12.036Z,1.60
2019-04-14T09:25:40.762Z,1.87
2019-04-14T09:28:09.478Z,1.45
2019-04-14T09:30:38.231Z,2.15
2019-04-14T09:33:06.956Z,2.20
2019-04-14T09:35:35.683Z,2.40
2019-04-14T09:38:04.549Z,1.95
2019-04-14T09:40:33.332Z,1.92
2019-04-14T09:43:02.102Z,1.40
2019-04-14T09:45:30.920Z,1.57
2019-04-14T09:47:59.639Z,1.55
2019-04-14T09:50:28.370Z,1.40
2019-04-14T09:52:57.202Z,2.00
2019-04-14T09:55:25.923Z,1.90
2019-04-14T09:57:54.689Z,1.62
2019-04-14T10:00:23.704Z,2.72
2019-04-14T10:02:52.421Z,4.40
2019-04-14T10:05:21.273Z,4.47
2019-04-14T10:07:49.973Z,4.83
2019-04-14T10:10:18.867Z,3.50
2019-04-14T10:12:47.587Z,5.37
2019-04-14T10:15:16.417Z,4.78
2019-04-14T10:17:45.172Z,3.27
2019-04-14T10:20:14.005Z,2.60
2019-04-14T10:22:42.742Z,3.77
2019-04-14T10:25:11.562Z,5.12
2019-04-14T10:27:40.284Z,4.50
2019-04-14T10:30:09.243Z,6.00
2019-04-14T10:32:37.952Z,3.20
2019-04-14T10:35:07.188Z,3.02
2019-04-14T10:37:35.930Z,3.22
2019-04-14T10:40:06.191Z,2.02
2019-04-14T10:42:35.102Z,1.80
2019-04-14T10:45:04.682Z,1.90
2019-04-14T10:47:33.496Z,2.00
2019-04-14T10:50:02.224Z,1.75
2019-04-14T10:52:30.947Z,1.62
2019-04-14T10:54:59.676Z,1.80
2019-04-14T10:57:30.390Z,1.65
2019-04-14T10:59:58.895Z,1.62
2019-04-14T11:02:27.694Z,1.77
2019-04-14T11:04:56.573Z,1.82
2019-04-14T11:07:26.911Z,1.80
2019-04-14T11:09:55.662Z,1.75
2019-04-14T11:12:24.668Z,1.95
2019-04-14T11:14:53.391Z,1.98
2019-04-14T11:17:22.244Z,1.70
2019-04-14T11:19:50.930Z,1.72
2019-04-14T11:22:19.671Z,1.80
2019-04-14T11:24:48.403Z,1.87
2019-04-14T11:27:17.290Z,1.77
2019-04-14T11:29:46.139Z,2.05
2019-04-14T11:32:19.567Z,1.30
2019-04-14T11:34:55.578Z,1.80
2019-04-14T11:37:44.065Z,1.82
2019-04-14T11:40:14.458Z,1.80
2019-04-14T11:42:52.335Z,1.60
2019-04-14T11:45:13.546Z,1.90
2019-04-14T11:47:42.493Z,1.60
2019-04-14T11:50:13.140Z,1.70
2019-04-14T11:52:43.953Z,4.85
2019-04-14T11:55:12.822Z,1.67
2019-04-14T11:57:41.547Z,1.87
2019-04-14T12:00:14.777Z,1.92
2019-04-14T12:02:47.868Z,1.60
2019-04-14T12:05:21.316Z,2.22
2019-04-14T12:07:55.731Z,2.00
2019-04-14T12:10:25.121Z,1.98
2019-04-14T12:12:53.906Z,2.25
2019-04-14T12:15:22.660Z,2.92
2019-04-14T12:17:51.459Z,1.75
2019-04-14T12:20:20.179Z,1.60
2019-04-14T12:22:49.038Z,2.00
2019-04-14T12:25:17.821Z,2.35
2019-04-14T12:27:46.726Z,2.00
2019-04-14T12:30:15.836Z,1.85
2019-04-14T12:32:44.663Z,1.70
2019-04-14T12:35:14.187Z,1.72
2019-04-14T12:37:44.765Z,1.40
2019-04-14T12:40:13.988Z,1.52
2019-04-14T12:42:44.436Z,2.08
2019-04-14T12:45:30.237Z,1.32
2019-04-14T12:48:16.804Z,2.02
2019-04-14T12:50:53.282Z,1.85
2019-04-14T12:53:22.019Z,1.50
2019-04-14T12:55:50.823Z,2.22
2019-04-14T12:58:22.230Z,1.77
2019-04-14T13:00:52.525Z,2.08
2019-04-14T13:03:21.856Z,1.40
2019-04-14T13:05:50.643Z,1.77
2019-04-14T13:08:19.347Z,1.67
2019-04-14T13:10:48.157Z,3.12
2019-04-14T13:13:16.878Z,1.72
2019-04-14T13:15:48.071Z,1.85
2019-04-14T13:18:16.899Z,1.70
2019-04-14T13:20:45.705Z,2.20
2019-04-14T13:23:14.601Z,2.83
2019-04-14T13:25:43.335Z,2.50
2019-04-14T13:28:12.059Z,1.75
2019-04-14T13:30:42.278Z,1.85
2019-04-14T13:33:11.177Z,1.40
2019-04-14T13:35:39.869Z,1.55
2019-04-14T13:38:08.746Z,1.55
2019-04-14T13:40:37.458Z,2.15
2019-04-14T13:43:06.192Z,1.72
2019-04-14T13:45:34.941Z,2.42
2019-04-14T13:48:03.763Z,2.40
2019-04-14T13:50:32.550Z,2.05
2019-04-14T13:53:01.266Z,2.12
2019-04-14T13:55:30.125Z,2.37
2019-04-14T13:57:58.856Z,2.27
2019-04-14T14:00:27.759Z,1.90
2019-04-14T14:02:56.584Z,2.62
2019-04-14T14:05:25.305Z,2.05
2019-04-14T14:07:54.179Z,4.25
2019-04-14T14:10:23.192Z,2.58
2019-04-14T14:13:11.996Z,3.45
2019-04-14T14:15:44.874Z,2.60
2019-04-14T14:18:27.467Z,2.70
2019-04-14T14:21:16.069Z,2.87
2019-04-14T14:24:05.596Z,2.85
2019-04-14T14:26:42.113Z,4.97
2019-04-14T14:29:10.837Z,7.95
2019-04-14T14:31:39.785Z,7.50
2019-04-14T14:34:08.517Z,7.45
2019-04-14T14:36:38.348Z,10.13
2019-04-14T14:39:09.602Z,9.03
2019-04-14T14:41:38.513Z,7.92
2019-04-14T14:44:07.211Z,10.15
2019-04-14T14:46:43.567Z,12.25
2019-04-14T14:49:19.918Z,6.87
2019-04-14T14:51:53.214Z,7.17
2019-04-14T14:54:21.930Z,12.58
2019-04-14T14:56:50.943Z,5.33
2019-04-14T14:59:19.720Z,4.83
2019-04-14T15:01:48.452Z,3.90
2019-04-14T15:04:19.080Z,4.03
2019-04-14T15:06:47.782Z,6.42
2019-04-14T15:09:16.647Z,7.20
2019-04-14T15:11:45.394Z,3.12
2019-04-14T15:14:14.133Z,6.05
2019-04-14T15:16:43.063Z,12.10
2019-04-14T15:19:11.943Z,14.65
2019-04-14T15:21:40.623Z,12.00
2019-04-14T15:24:09.511Z,17.10
2019-04-14T15:26:38.314Z,8.58
2019-04-14T15:29:07.075Z,9.63
2019-04-14T15:31:37.220Z,12.45
2019-04-14T15:34:06.054Z,14.28
2019-04-14T15:36:34.768Z,16.00
2019-04-14T15:39:05.943Z,13.15
2019-04-14T15:41:34.720Z,9.90
2019-04-14T15:44:03.499Z,9.83
2019-04-14T15:46:32.353Z,12.65
2019-04-14T15:49:01.303Z,8.10
2019-04-14T15:51:30.012Z,10.35
2019-04-14T15:53:58.785Z,9.38
2019-04-14T15:56:47.157Z,9.85
2019-04-14T15:59:17.524Z,9.50
2019-04-14T16:01:48.265Z,10.13
2019-04-14T16:04:20.228Z,9.35
2019-04-14T16:06:50.630Z,9.95
2019-04-14T16:09:23.683Z,10.68
2019-04-14T16:12:10.344Z,9.60
2019-04-14T16:14:47.103Z,12.73
2019-04-14T16:17:26.430Z,11.85
2019-04-14T16:20:02.288Z,16.80
2019-04-14T16:22:31.087Z,13.08
2019-04-14T16:24:59.819Z,8.90
2019-04-14T16:27:48.400Z,10.32
2019-04-14T16:30:35.338Z,10.98
2019-04-14T16:33:06.920Z,11.65
2019-04-14T16:35:37.352Z,11.38
2019-04-14T16:38:07.236Z,11.95
2019-04-14T16:40:37.227Z,9.03
2019-04-14T16:43:06.073Z,14.60
2019-04-14T16:45:34.840Z,13.05
2019-04-14T16:48:03.573Z,12.30
2019-04-14T16:50:32.318Z,14.20
2019-04-14T16:53:08.719Z,19.98
2019-04-14T16:55:39.136Z,27.73
2019-04-14T16:58:18.745Z,25.08
2019-04-14T17:00:57.937Z,14.65
2019-04-14T17:03:26.759Z,3.65
2019-04-14T17:05:55.571Z,7.60
2019-04-14T17:08:24.307Z,12.88
2019-04-14T17:10:53.664Z,8.30
2019-04-14T17:13:24.271Z,9.43
2019-04-14T17:16:09.993Z,15.88
2019-04-14T17:18:43.141Z,8.28
2019-04-14T17:21:13.510Z,5.33
2019-04-14T17:23:46.668Z,7.22
2019-04-14T17:26:19.857Z,9.75
2019-04-14T17:28:52.957Z,16.73
2019-04-14T17:31:23.361Z,17.05
2019-04-14T17:33:56.742Z,13.72
2019-04-14T17:36:43.540Z,10.00
2019-04-14T17:39:31.849Z,8.13
2019-04-14T17:42:18.880Z,9.05
2019-04-14T17:44:51.962Z,10.05
2019-04-14T17:47:40.412Z,12.25
2019-04-14T17:50:19.799Z,14.45
2019-04-14T17:52:51.174Z,14.07
2019-04-14T17:55:30.670Z,13.08
2019-04-14T17:58:04.104Z,13.58
2019-04-14T18:00:43.498Z,12.35
2019-04-14T18:03:19.554Z,12.78
2019-04-14T18:05:50.073Z,12.00
2019-04-14T18:08:29.634Z,12.78
2019-04-14T18:11:02.964Z,13.83
2019-04-14T18:13:42.167Z,10.78
2019-04-14T18:16:29.069Z,13.22
2019-04-14T18:19:00.597Z,13.62
2019-04-14T18:21:29.365Z,15.43
2019-04-14T18:23:58.103Z,15.35
2019-04-14T18:26:28.794Z,18.87
2019-04-14T18:29:14.836Z,18.95
2019-04-14T18:31:46.868Z,18.90
2019-04-14T18:34:37.262Z,17.73
2019-04-14T18:37:11.661Z,18.45
2019-04-14T18:40:00.586Z,17.23
2019-04-14T18:42:38.839Z,14.43
2019-04-14T18:45:09.953Z,14.55
2019-04-14T18:47:49.600Z,12.03
2019-04-14T18:50:20.004Z,16.17
2019-04-14T18:53:03.791Z,13.08
2019-04-14T18:55:50.690Z,12.73
2019-04-14T18:58:37.077Z,9.70
2019-04-14T19:01:13.471Z,12.90
2019-04-14T19:03:42.178Z,9.83
2019-04-14T19:06:10.913Z,19.42
2019-04-14T19:08:39.618Z,17.20
2019-04-14T19:11:15.714Z,10.20
2019-04-14T19:13:46.117Z,16.48
2019-04-14T19:16:16.471Z,16.85
2019-04-14T19:18:46.816Z,10.58
2019-04-14T19:21:20.140Z,17.92
2019-04-14T19:23:48.890Z,15.05
2019-04-14T19:26:17.685Z,12.20
2019-04-14T19:28:46.415Z,12.55
2019-04-14T19:31:15.371Z,13.35
2019-04-14T19:33:44.090Z,16.25
2019-04-14T19:36:12.996Z,18.15
2019-04-14T19:38:41.736Z,15.15
2019-04-14T19:41:10.477Z,15.20
2019-04-14T19:43:39.259Z,15.20
2019-04-14T19:46:08.085Z,14.40
2019-04-14T19:48:36.817Z,15.75
2019-04-14T19:51:05.584Z,17.50
2019-04-14T19:53:34.401Z,16.67
2019-04-14T19:56:03.144Z,21.30
2019-04-14T19:58:31.968Z,15.38
2019-04-14T20:01:00.802Z,18.55
2019-04-14T20:03:29.535Z,13.18
2019-04-14T20:05:58.246Z,16.57
2019-04-14T20:08:27.064Z,10.68
2019-04-14T20:10:55.831Z,11.33
2019-04-14T20:13:25.958Z,10.80
2019-04-14T20:15:59.027Z,9.65
2019-04-14T20:18:35.402Z,9.73
2019-04-14T20:21:08.767Z,8.85
2019-04-14T20:23:57.651Z,9.93
2019-04-14T20:26:29.775Z,7.60
2019-04-14T20:29:05.635Z,7.85
2019-04-14T20:31:51.467Z,7.28
2019-04-14T20:34:20.242Z,9.05
2019-04-14T20:36:50.539Z,8.23
2019-04-14T20:39:19.915Z,7.58
2019-04-14T20:41:48.733Z,10.35
2019-04-14T20:44:21.908Z,9.83
2019-04-14T20:46:50.652Z,8.55
2019-04-14T20:49:19.405Z,6.40
2019-04-14T20:51:48.105Z,6.42
2019-04-14T20:54:16.926Z,5.50
2019-04-14T20:56:45.633Z,6.45
2019-04-14T20:59:14.515Z,6.78
2019-04-14T21:01:44.925Z,6.53
2019-04-14T21:04:33.004Z,6.30
2019-04-14T21:07:18.674Z,6.15
2019-04-14T21:10:04.202Z,6.47
2019-04-14T21:12:34.543Z,5.37
2019-04-14T21:15:05.123Z,5.78
2019-04-14T21:17:35.431Z,5.78
2019-04-14T21:20:24.557Z,5.25
2019-04-14T21:23:04.203Z,5.03
2019-04-14T21:26:00.332Z,5.17
2019-04-14T21:28:23.064Z,4.10
2019-04-14T21:30:53.406Z,3.75
2019-04-14T21:33:40.315Z,3.70
2019-04-14T21:36:16.439Z,4.70
2019-04-14T21:38:49.542Z,4.65
2019-04-14T21:41:19.830Z,4.97
2019-04-14T21:43:48.549Z,4.42
2019-04-14T21:46:17.334Z,4.78
2019-04-14T21:48:46.058Z,4.72
2019-04-14T21:51:16.802Z,4.55
2019-04-14T21:53:46.498Z,4.25
2019-04-14T21:56:15.398Z,4.92
2019-04-14T21:58:45.730Z,4.30
2019-04-14T22:01:36.938Z,4.37
2019-04-14T22:04:22.308Z,4.13
2019-04-14T22:06:52.698Z,4.03
2019-04-14T22:09:29.404Z,6.05
2019-04-14T22:11:58.770Z,4.30
2019-04-14T22:14:27.545Z,4.95
2019-04-14T22:16:56.343Z,5.75
2019-04-14T22:19:26.198Z,4.97
2019-04-14T22:21:55.001Z,3.77
2019-04-14T22:24:23.827Z,3.47
2019-04-14T22:26:52.578Z,4.15
2019-04-14T22:29:21.418Z,4.87
2019-04-14T22:31:50.263Z,6.53
2019-04-14T22:34:19.039Z,3.92
2019-04-14T22:36:48.924Z,4.42
2019-04-14T22:39:20.365Z,3.65
2019-04-14T22:41:48.861Z,3.58
2019-04-14T22:44:17.705Z,3.42
2019-04-14T22:46:46.422Z,3.45
2019-04-14T22:49:15.145Z,3.33
2019-04-14T22:51:43.852Z,3.42
2019-04-14T22:54:12.649Z,3.77
2019-04-14T22:56:41.324Z,3.60
2019-04-14T22:59:10.160Z,7.47
2019-04-14T23:01:40.542Z,13.72
2019-04-14T23:04:27.403Z,15.75
2019-04-14T23:07:03.783Z,11.43
2019-04-14T23:09:39.891Z,10.90
2019-04-14T23:12:28.533Z,11.03
2019-04-14T23:15:01.409Z,4.80
2019-04-14T23:17:37.983Z,5.47
2019-04-14T23:20:18.111Z,5.42
2019-04-14T23:22:51.267Z,3.90
2019-04-14T23:25:19.994Z,3.75
2019-04-14T23:27:48.781Z,3.42
2019-04-14T23:30:17.671Z,2.92
2019-04-14T23:32:46.592Z,3.72
2019-04-14T23:35:15.412Z,3.27
2019-04-14T23:37:44.264Z,2.95
2019-04-14T23:40:13.147Z,2.60
2019-04-14T23:42:41.926Z,3.45
2019-04-14T23:45:10.792Z,2.40
2019-04-14T23:47:39.565Z,2.65
2019-04-14T23:50:08.768Z,2.72
2019-04-14T23:52:39.692Z,2.65
2019-04-14T23:55:09.227Z,3.10
2019-04-14T23:57:38.018Z,2.65
